createdAt,value
2023-09-17T00:00:22.689Z,94769.06
2023-09-17T00:02:49.445Z,94769.38
2023-09-17T00:05:17.403Z,94774.34
2023-09-17T00:07:44.512Z,94794.78
2023-09-17T00:10:12.430Z,94779.94
2023-09-17T00:12:40.920Z,94780.31
2023-09-17T00:15:08.551Z,94781.69
2023-09-17T00:17:35.382Z,94782.81
2023-09-17T00:20:02.023Z,94780.34
2023-09-17T00:22:28.662Z,94781.13
2023-09-17T00:24:55.412Z,94776.84
2023-09-17T00:27:22.031Z,94779.75
2023-09-17T00:29:49.968Z,94780.63
2023-09-17T00:32:16.574Z,94790.84
2023-09-17T00:34:43.299Z,94788.13
2023-09-17T00:37:12.648Z,94781.81
2023-09-17T00:39:41.100Z,94790.78
2023-09-17T00:42:07.801Z,94793.00
2023-09-17T00:44:34.420Z,94796.66
2023-09-17T00:47:04.466Z,94795.38
2023-09-17T00:49:31.739Z,94797.31
2023-09-17T00:51:58.704Z,94796.38
2023-09-17T00:54:27.426Z,94794.09
2023-09-17T00:56:54.249Z,94802.09
2023-09-17T00:59:21.333Z,94803.41
2023-09-17T01:01:48.155Z,94798.44
2023-09-17T01:04:18.959Z,94797.94
2023-09-17T01:06:47.579Z,94794.69
2023-09-17T01:09:14.765Z,94801.22
2023-09-17T01:11:42.529Z,94796.34
2023-09-17T01:14:16.721Z,94786.81
2023-09-17T01:16:48.497Z,94786.25
2023-09-17T01:19:19.929Z,94783.56
2023-09-17T01:21:52.561Z,94789.75
2023-09-17T01:24:26.987Z,94788.72
2023-09-17T01:27:03.871Z,94784.22
2023-09-17T01:29:35.280Z,94784.44
2023-09-17T01:32:02.010Z,94777.03
2023-09-17T01:34:31.486Z,94775.94
2023-09-17T01:37:01.844Z,94771.06
2023-09-17T01:39:34.616Z,94771.16
2023-09-17T01:42:05.300Z,94776.94
2023-09-17T01:44:32.588Z,94771.16
2023-09-17T01:47:01.450Z,94763.63
2023-09-17T01:49:29.644Z,94759.97
2023-09-17T01:51:57.400Z,94754.16
2023-09-17T01:54:24.673Z,94765.97
2023-09-17T01:56:51.328Z,94768.34
2023-09-17T01:59:19.280Z,94764.97
2023-09-17T02:01:45.991Z,94764.09
2023-09-17T02:04:13.127Z,94773.31
2023-09-17T02:06:39.830Z,94778.00
2023-09-17T02:09:06.932Z,94783.34
2023-09-17T02:11:34.024Z,94771.81
2023-09-17T02:14:00.731Z,94764.56
2023-09-17T02:16:29.505Z,94773.41
2023-09-17T02:18:56.137Z,94768.13
2023-09-17T02:21:24.103Z,94777.47
2023-09-17T02:23:50.878Z,94773.19
2023-09-17T02:26:17.670Z,94773.19
2023-09-17T02:28:44.482Z,94776.47
2023-09-17T02:31:11.191Z,94774.56
2023-09-17T02:33:39.164Z,94778.50
2023-09-17T02:36:07.173Z,94781.88
2023-09-17T02:38:33.801Z,94775.44
2023-09-17T02:41:00.796Z,94775.09
2023-09-17T02:43:30.365Z,94779.53
2023-09-17T02:45:57.840Z,94783.50
2023-09-17T02:48:24.547Z,94785.19
2023-09-17T02:50:52.519Z,94790.91
2023-09-17T02:53:21.175Z,94798.09
2023-09-17T02:55:48.367Z,94785.53
2023-09-17T02:58:16.285Z,94791.72
2023-09-17T03:00:44.473Z,94791.44
2023-09-17T03:03:12.057Z,94796.72
2023-09-17T03:05:39.357Z,94805.00
2023-09-17T03:08:10.321Z,94800.63
2023-09-17T03:10:43.805Z,94800.94
2023-09-17T03:13:15.836Z,94802.38
2023-09-17T03:15:43.147Z,94803.03
2023-09-17T03:18:09.894Z,94802.09
2023-09-17T03:20:36.575Z,94805.94
2023-09-17T03:23:05.586Z,94809.06
2023-09-17T03:25:33.696Z,94802.22
2023-09-17T03:28:00.719Z,94806.72
2023-09-17T03:30:27.562Z,94819.44
2023-09-17T03:33:04.406Z,94818.72
2023-09-17T03:35:31.933Z,94818.88
2023-09-17T03:37:58.556Z,94812.16
2023-09-17T03:40:25.667Z,94816.16
2023-09-17T03:42:53.776Z,94815.34
2023-09-17T03:45:20.846Z,94822.63
2023-09-17T03:47:48.724Z,94817.25
2023-09-17T03:50:19.740Z,94816.44
2023-09-17T03:52:50.312Z,94815.13
2023-09-17T03:55:17.484Z,94816.66
2023-09-17T03:57:44.321Z,94822.28
2023-09-17T04:00:14.357Z,94832.13
2023-09-17T04:02:43.049Z,94835.22
2023-09-17T04:05:11.885Z,94831.44
2023-09-17T04:07:39.976Z,94820.75
2023-09-17T04:10:07.873Z,94825.66
2023-09-17T04:12:35.791Z,94828.75
2023-09-17T04:15:03.838Z,94819.88
2023-09-17T04:17:31.851Z,94818.22
2023-09-17T04:19:58.803Z,94825.53
2023-09-17T04:22:25.426Z,94827.22
2023-09-17T04:24:52.091Z,94822.53
2023-09-17T04:27:18.759Z,94826.91
2023-09-17T04:29:45.421Z,94823.66
2023-09-17T04:32:13.471Z,94826.56
2023-09-17T04:34:41.567Z,94826.56
2023-09-17T04:37:08.765Z,94831.19
2023-09-17T04:39:35.383Z,94829.94
2023-09-17T04:42:02.043Z,94828.63
2023-09-17T04:44:29.521Z,94832.06
2023-09-17T04:46:56.178Z,94826.16
2023-09-17T04:49:22.869Z,94834.72
2023-09-17T04:51:51.135Z,94836.31
2023-09-17T04:54:19.634Z,94834.03
2023-09-17T04:56:46.262Z,94831.50
2023-09-17T04:59:12.984Z,94835.41
2023-09-17T05:01:39.733Z,94838.22
2023-09-17T05:04:09.700Z,94835.72
2023-09-17T05:06:36.453Z,94831.19
2023-09-17T05:09:04.458Z,94837.06
2023-09-17T05:11:31.154Z,94838.97
2023-09-17T05:13:57.930Z,94838.72
2023-09-17T05:16:24.648Z,94835.47
2023-09-17T05:18:51.375Z,94838.22
2023-09-17T05:21:20.345Z,94836.44
2023-09-17T05:23:46.966Z,94839.88
2023-09-17T05:26:14.996Z,94840.91
2023-09-17T05:28:41.629Z,94847.09
2023-09-17T05:31:08.396Z,94844.88
2023-09-17T05:33:35.046Z,94848.72
2023-09-17T05:36:01.816Z,94845.69
2023-09-17T05:38:28.522Z,94850.34
2023-09-17T05:40:55.169Z,94853.63
2023-09-17T05:43:24.141Z,94852.47
2023-09-17T05:45:57.263Z,94856.47
2023-09-17T05:48:24.057Z,94859.63
2023-09-17T05:50:51.281Z,94855.63
2023-09-17T05:53:17.910Z,94858.91
2023-09-17T05:55:44.646Z,94855.50
2023-09-17T05:58:11.333Z,94857.09
2023-09-17T06:00:39.441Z,94859.44
2023-09-17T06:03:06.274Z,94866.34
2023-09-17T06:05:33.078Z,94873.66
2023-09-17T06:07:59.785Z,94863.25
2023-09-17T06:10:27.558Z,94870.44
2023-09-17T06:12:54.506Z,94877.38
2023-09-17T06:15:21.151Z,94878.72
2023-09-17T06:17:49.552Z,94881.91
2023-09-17T06:20:16.347Z,94889.75
2023-09-17T06:22:43.656Z,94884.97
2023-09-17T06:25:10.276Z,94885.59
2023-09-17T06:27:36.876Z,94886.38
2023-09-17T06:30:04.102Z,94888.63
2023-09-17T06:32:31.100Z,94890.19
2023-09-17T06:34:59.241Z,94888.53
2023-09-17T06:37:25.973Z,94903.53
2023-09-17T06:39:52.782Z,94901.94
2023-09-17T06:42:19.395Z,94908.38
2023-09-17T06:44:46.549Z,94911.00
2023-09-17T06:47:14.335Z,94898.88
2023-09-17T06:49:41.079Z,94897.56
2023-09-17T06:52:09.189Z,94896.59
2023-09-17T06:54:36.311Z,94904.84
2023-09-17T06:57:03.245Z,94898.59
2023-09-17T06:59:29.976Z,94903.72
2023-09-17T07:01:56.641Z,94903.44
2023-09-17T07:04:23.409Z,94903.09
2023-09-17T07:06:50.044Z,94906.22
2023-09-17T07:09:18.906Z,94902.59
2023-09-17T07:11:45.552Z,94898.28
2023-09-17T07:14:12.192Z,94897.81
2023-09-17T07:16:40.515Z,94898.94
2023-09-17T07:19:07.348Z,94903.81
2023-09-17T07:21:33.968Z,94889.91
2023-09-17T07:24:00.614Z,94894.47
2023-09-17T07:26:29.167Z,94886.44
2023-09-17T07:28:55.951Z,94897.59
2023-09-17T07:31:22.838Z,94906.22
2023-09-17T07:33:49.945Z,94897.59
2023-09-17T07:36:16.955Z,94900.72
2023-09-17T07:38:43.598Z,94907.56
2023-09-17T07:41:10.298Z,94907.59
2023-09-17T07:43:38.436Z,94906.81
2023-09-17T07:46:06.305Z,94910.03
2023-09-17T07:48:32.967Z,94911.03
2023-09-17T07:51:01.182Z,94917.84
2023-09-17T07:53:28.450Z,94909.44
2023-09-17T07:55:57.219Z,94914.06
2023-09-17T07:58:24.321Z,94917.34
2023-09-17T08:00:53.700Z,94918.06
2023-09-17T08:03:20.337Z,94912.19
2023-09-17T08:05:47.663Z,94917.59
2023-09-17T08:08:15.624Z,94921.34
2023-09-17T08:10:42.740Z,94922.84
2023-09-17T08:13:10.071Z,94925.66
2023-09-17T08:15:36.788Z,94920.19
2023-09-17T08:18:05.324Z,94921.59
2023-09-17T08:20:32.048Z,94918.78
2023-09-17T08:22:59.015Z,94921.34
2023-09-17T08:25:27.732Z,94914.00
2023-09-17T08:27:54.842Z,94908.75
2023-09-17T08:30:21.589Z,94912.47
2023-09-17T08:32:48.542Z,94902.59
2023-09-17T08:35:16.690Z,94904.72
2023-09-17T08:37:43.815Z,94907.75
2023-09-17T08:40:15.340Z,94907.69
2023-09-17T08:42:43.179Z,94911.69
2023-09-17T08:45:11.125Z,94906.88
2023-09-17T08:47:38.780Z,94908.31
2023-09-17T08:50:10.085Z,94917.72
2023-09-17T08:52:44.430Z,94922.47
2023-09-17T08:55:12.463Z,94922.94
2023-09-17T08:57:43.161Z,94927.91
2023-09-17T09:00:16.216Z,94927.91
2023-09-17T09:02:47.371Z,94930.91
2023-09-17T09:05:16.162Z,94925.31
2023-09-17T09:07:45.500Z,94917.53
2023-09-17T09:10:14.640Z,94917.09
2023-09-17T09:12:43.152Z,94911.53
2023-09-17T09:15:13.406Z,94922.66
2023-09-17T09:17:40.617Z,94924.44
2023-09-17T09:20:10.863Z,94916.69
2023-09-17T09:22:38.605Z,94915.59
2023-09-17T09:25:09.771Z,94909.72
2023-09-17T09:27:37.924Z,94906.84
2023-09-17T09:30:07.635Z,94905.91
2023-09-17T09:32:34.385Z,94901.97
2023-09-17T09:35:02.639Z,94900.53
2023-09-17T09:37:30.055Z,94899.72
2023-09-17T09:39:57.022Z,94892.88
2023-09-17T09:42:27.062Z,94883.84
2023-09-17T09:44:54.470Z,94891.75
2023-09-17T09:47:23.767Z,94893.72
2023-09-17T09:49:51.036Z,94902.38
2023-09-17T09:52:18.260Z,94893.66
2023-09-17T09:54:46.172Z,94899.16
2023-09-17T09:57:13.442Z,94892.44
2023-09-17T09:59:43.915Z,94890.22
2023-09-17T10:02:12.897Z,94892.91
2023-09-17T10:04:40.050Z,94886.66
2023-09-17T10:07:08.708Z,94887.28
2023-09-17T10:09:35.772Z,94879.66
2023-09-17T10:12:02.834Z,94885.50
2023-09-17T10:14:31.051Z,94893.69
2023-09-17T10:17:02.171Z,94890.22
2023-09-17T10:19:32.202Z,94887.88
2023-09-17T10:22:00.365Z,94872.16
2023-09-17T10:24:28.102Z,94883.13
2023-09-17T10:26:56.134Z,94887.06
2023-09-17T10:29:24.570Z,94878.63
2023-09-17T10:31:51.867Z,94878.91
2023-09-17T10:34:20.194Z,94884.25
2023-09-17T10:36:48.623Z,94876.44
2023-09-17T10:39:16.256Z,94872.81
2023-09-17T10:41:45.964Z,94879.97
2023-09-17T10:44:15.809Z,94877.75
2023-09-17T10:46:46.377Z,94872.88
2023-09-17T10:49:13.403Z,94868.66
2023-09-17T10:51:42.176Z,94863.63
2023-09-17T10:54:08.863Z,94852.34
2023-09-17T10:56:36.046Z,94857.50
2023-09-17T10:59:05.079Z,94857.69
2023-09-17T11:01:35.625Z,94852.63
2023-09-17T11:04:07.155Z,94846.06
2023-09-17T11:06:35.917Z,94844.16
2023-09-17T11:09:05.877Z,94851.78
2023-09-17T11:11:35.887Z,94845.09
2023-09-17T11:14:04.321Z,94846.25
2023-09-17T11:16:33.450Z,94856.78
2023-09-17T11:19:08.035Z,94841.34
2023-09-17T11:21:36.202Z,94854.06
2023-09-17T11:24:10.954Z,94843.00
2023-09-17T11:26:39.694Z,94841.59
2023-09-17T11:29:07.815Z,94834.88
2023-09-17T11:31:36.136Z,94838.38
2023-09-17T11:34:06.198Z,94841.53
2023-09-17T11:36:33.171Z,94833.97
2023-09-17T11:39:05.974Z,94836.13
2023-09-17T11:41:37.686Z,94842.16
2023-09-17T11:44:05.355Z,94839.72
2023-09-17T11:46:32.400Z,94830.81
2023-09-17T11:48:59.058Z,94835.19
2023-09-17T11:51:27.467Z,94835.66
2023-09-17T11:53:59.276Z,94834.34
2023-09-17T11:56:29.727Z,94831.06
2023-09-17T11:59:04.668Z,94822.69
2023-09-17T12:01:35.251Z,94830.69
2023-09-17T12:04:05.349Z,94831.28
2023-09-17T12:06:32.267Z,94832.31
2023-09-17T12:09:01.205Z,94832.03
2023-09-17T12:11:29.189Z,94823.59
2023-09-17T12:13:57.721Z,94818.03
2023-09-17T12:16:26.080Z,94816.88
2023-09-17T12:19:03.755Z,94821.50
2023-09-17T12:21:41.984Z,94819.63
2023-09-17T12:24:18.608Z,94818.03
2023-09-17T12:27:10.113Z,94814.94
2023-09-17T12:29:37.595Z,94822.75
2023-09-17T12:32:05.100Z,94820.69
2023-09-17T12:34:34.429Z,94810.09
2023-09-17T12:37:01.077Z,94807.38
2023-09-17T12:39:27.757Z,94807.09
2023-09-17T12:41:55.763Z,94807.66
2023-09-17T12:44:23.638Z,94800.41
2023-09-17T12:46:50.320Z,94785.81
2023-09-17T12:49:17.199Z,94792.06
2023-09-17T12:51:44.609Z,94789.94
2023-09-17T12:54:12.467Z,94782.59
2023-09-17T12:56:39.432Z,94787.53
2023-09-17T12:59:07.539Z,94780.09
2023-09-17T13:01:34.459Z,94781.09
2023-09-17T13:04:05.803Z,94777.66
2023-09-17T13:06:35.975Z,94769.13
2023-09-17T13:09:03.501Z,94773.88
2023-09-17T13:11:30.736Z,94765.63
2023-09-17T13:13:59.057Z,94763.41
2023-09-17T13:16:27.137Z,94764.63
2023-09-17T13:18:53.810Z,94767.22
2023-09-17T13:21:21.465Z,94762.84
2023-09-17T13:23:49.104Z,94759.09
2023-09-17T13:26:15.980Z,94755.56
2023-09-17T13:28:42.845Z,94753.03
2023-09-17T13:31:09.768Z,94749.88
2023-09-17T13:33:39.488Z,94749.13
2023-09-17T13:36:08.928Z,94740.50
2023-09-17T13:38:35.762Z,94731.66
2023-09-17T13:41:04.169Z,94742.06
2023-09-17T13:43:30.885Z,94734.16
2023-09-17T13:46:02.975Z,94728.06
2023-09-17T13:48:30.743Z,94732.72
2023-09-17T13:50:58.738Z,94730.63
2023-09-17T13:53:25.385Z,94735.41
2023-09-17T13:55:52.081Z,94727.22
2023-09-17T13:58:19.177Z,94723.47
2023-09-17T14:00:45.836Z,94723.75
2023-09-17T14:03:14.892Z,94726.63
2023-09-17T14:05:41.589Z,94718.53
2023-09-17T14:08:10.174Z,94715.19
2023-09-17T14:10:37.031Z,94721.22
2023-09-17T14:13:05.091Z,94712.38
2023-09-17T14:15:34.059Z,94707.28
2023-09-17T14:18:00.954Z,94710.75
2023-09-17T14:20:27.842Z,94713.63
2023-09-17T14:22:56.846Z,94712.03
2023-09-17T14:25:24.952Z,94713.75
2023-09-17T14:27:51.820Z,94712.47
2023-09-17T14:30:22.679Z,94707.09
2023-09-17T14:32:55.113Z,94714.06
2023-09-17T14:35:22.528Z,94707.56
2023-09-17T14:37:49.872Z,94713.44
2023-09-17T14:40:19.210Z,94713.75
2023-09-17T14:42:47.150Z,94713.59
2023-09-17T14:45:13.770Z,94706.28
2023-09-17T14:47:40.676Z,94711.69
2023-09-17T14:50:14.911Z,94700.88
2023-09-17T14:52:41.634Z,94712.47
2023-09-17T14:55:09.163Z,94703.59
2023-09-17T14:57:37.744Z,94702.78
2023-09-17T15:00:07.626Z,94706.47
2023-09-17T15:02:34.580Z,94701.38
2023-09-17T15:05:01.699Z,94697.56
2023-09-17T15:07:28.712Z,94702.47
2023-09-17T15:09:55.438Z,94697.06
2023-09-17T15:12:22.076Z,94695.50
2023-09-17T15:14:48.876Z,94694.72
2023-09-17T15:17:17.190Z,94698.13
2023-09-17T15:19:43.992Z,94698.56
2023-09-17T15:22:10.681Z,94692.81
2023-09-17T15:24:38.475Z,94687.56
2023-09-17T15:27:05.381Z,94695.66
2023-09-17T15:29:32.728Z,94700.25
2023-09-17T15:31:59.559Z,94692.94
2023-09-17T15:34:28.730Z,94692.47
2023-09-17T15:36:55.716Z,94699.16
2023-09-17T15:39:22.335Z,94697.56
2023-09-17T15:41:48.971Z,94695.66
2023-09-17T15:44:16.583Z,94694.53
2023-09-17T15:46:43.804Z,94695.34
2023-09-17T15:49:10.770Z,94695.03
2023-09-17T15:51:38.932Z,94701.53
2023-09-17T15:54:05.798Z,94700.44
2023-09-17T15:56:32.544Z,94699.31
2023-09-17T15:58:59.291Z,94705.81
2023-09-17T16:01:26.172Z,94699.31
2023-09-17T16:03:53.044Z,94703.59
2023-09-17T16:06:24.362Z,94700.91
2023-09-17T16:08:54.112Z,94698.53
2023-09-17T16:11:21.160Z,94696.31
2023-09-17T16:13:47.951Z,94689.47
2023-09-17T16:16:14.794Z,94694.09
2023-09-17T16:18:41.692Z,94691.88
2023-09-17T16:21:08.393Z,94686.16
2023-09-17T16:23:35.598Z,94681.84
2023-09-17T16:26:04.044Z,94681.84
2023-09-17T16:28:30.703Z,94678.03
2023-09-17T16:30:57.934Z,94669.63
2023-09-17T16:33:24.959Z,94668.34
2023-09-17T16:35:51.709Z,94672.81
2023-09-17T16:38:20.259Z,94670.59
2023-09-17T16:40:47.688Z,94676.78
2023-09-17T16:43:16.400Z,94674.88
2023-09-17T16:45:43.406Z,94683.28
2023-09-17T16:48:10.923Z,94681.38
2023-09-17T16:50:37.564Z,94682.19
2023-09-17T16:53:04.654Z,94671.69
2023-09-17T16:55:31.317Z,94674.41
2023-09-17T16:57:57.978Z,94672.19
2023-09-17T17:00:26.028Z,94661.38
2023-09-17T17:02:53.037Z,94669.47
2023-09-17T17:05:20.027Z,94657.56
2023-09-17T17:07:47.034Z,94662.97
2023-09-17T17:10:14.460Z,94663.75
2023-09-17T17:12:41.174Z,94656.75
2023-09-17T17:15:11.425Z,94656.75
2023-09-17T17:17:39.635Z,94649.78
2023-09-17T17:20:07.955Z,94651.38
2023-09-17T17:22:42.785Z,94654.84
2023-09-17T17:25:09.805Z,94641.34
2023-09-17T17:27:36.482Z,94638.97
2023-09-17T17:30:03.793Z,94642.47
2023-09-17T17:32:31.013Z,94643.25
2023-09-17T17:34:59.529Z,94641.34
2023-09-17T17:37:26.250Z,94642.47
2023-09-17T17:39:52.953Z,94637.84
2023-09-17T17:42:19.566Z,94635.94
2023-09-17T17:44:46.184Z,94641.66
2023-09-17T17:47:12.872Z,94637.69
2023-09-17T17:49:39.485Z,94644.38
2023-09-17T17:52:07.568Z,94641.66
2023-09-17T17:54:34.203Z,94647.38
2023-09-17T17:57:02.615Z,94649.28
2023-09-17T17:59:29.264Z,94645.78
2023-09-17T18:01:56.426Z,94644.22
2023-09-17T18:04:23.098Z,94646.91
2023-09-17T18:06:49.834Z,94637.69
2023-09-17T18:09:17.786Z,94636.09
2023-09-17T18:11:44.415Z,94637.22
2023-09-17T18:14:11.221Z,94632.41
2023-09-17T18:16:37.910Z,94624.34
2023-09-17T18:19:04.624Z,94627.84
2023-09-17T18:21:31.262Z,94625.94
2023-09-17T18:23:57.927Z,94617.81
2023-09-17T18:26:26.382Z,94620.53
2023-09-17T18:28:53.145Z,94615.44
2023-09-17T18:31:20.017Z,94609.25
2023-09-17T18:33:46.770Z,94617.94
2023-09-17T18:36:13.457Z,94615.56
2023-09-17T18:38:40.828Z,94605.75
2023-09-17T18:41:07.506Z,94610.09
2023-09-17T18:43:35.557Z,94615.84
2023-09-17T18:46:04.430Z,94610.34
2023-09-17T18:48:31.076Z,94613.25
2023-09-17T18:50:57.920Z,94616.81
2023-09-17T18:53:24.592Z,94615.75
2023-09-17T18:55:51.298Z,94612.38
2023-09-17T18:58:17.972Z,94612.84
2023-09-17T19:00:46.122Z,94607.63
2023-09-17T19:03:12.849Z,94611.72
2023-09-17T19:05:41.586Z,94607.91
2023-09-17T19:08:08.445Z,94619.97
2023-09-17T19:10:35.298Z,94594.78
2023-09-17T19:13:01.963Z,94597.25
2023-09-17T19:15:28.610Z,94614.22
2023-09-17T19:17:56.707Z,94595.34
2023-09-17T19:20:23.438Z,94602.81
2023-09-17T19:22:50.129Z,94593.91
2023-09-17T19:25:17.030Z,94591.75
2023-09-17T19:27:44.598Z,94593.53
2023-09-17T19:30:12.785Z,94596.06
2023-09-17T19:32:39.706Z,94580.31
2023-09-17T19:35:08.533Z,94587.06
2023-09-17T19:37:35.168Z,94591.28
2023-09-17T19:40:01.910Z,94587.38
2023-09-17T19:42:29.078Z,94587.66
2023-09-17T19:44:55.765Z,94590.22
2023-09-17T19:47:22.527Z,94582.75
2023-09-17T19:49:49.456Z,94579.19
2023-09-17T19:52:17.521Z,94588.50
2023-09-17T19:54:44.960Z,94586.41
2023-09-17T19:57:11.772Z,94575.81
2023-09-17T19:59:38.547Z,94573.28
2023-09-17T20:02:05.272Z,94581.91
2023-09-17T20:04:32.525Z,94567.41
2023-09-17T20:07:01.050Z,94570.44
2023-09-17T20:09:29.136Z,94569.97
2023-09-17T20:11:56.444Z,94571.00
2023-09-17T20:14:23.481Z,94568.81
2023-09-17T20:16:50.221Z,94565.19
2023-09-17T20:19:16.974Z,94565.25
2023-09-17T20:21:43.857Z,94569.09
2023-09-17T20:24:10.955Z,94567.28
2023-09-17T20:26:38.979Z,94571.91
2023-09-17T20:29:05.898Z,94585.50
2023-09-17T20:31:32.930Z,94581.38
2023-09-17T20:34:00.733Z,94573.56
2023-09-17T20:36:27.447Z,94573.13
2023-09-17T20:38:54.316Z,94591.63
2023-09-17T20:41:21.317Z,94592.44
2023-09-17T20:46:15.809Z,94569.91
2023-09-17T20:48:42.577Z,94584.56
2023-09-17T20:51:09.258Z,94580.22
2023-09-17T20:53:35.906Z,94573.34
2023-09-17T20:56:04.429Z,94574.59
2023-09-17T20:58:31.094Z,94576.88
2023-09-17T21:00:59.231Z,94568.09
2023-09-17T21:03:26.022Z,94576.28
2023-09-17T21:05:52.658Z,94566.19
2023-09-17T21:08:19.398Z,94563.00
2023-09-17T21:10:46.160Z,94573.72
2023-09-17T21:13:15.106Z,94565.34
2023-09-17T21:15:41.796Z,94578.75
2023-09-17T21:18:10.646Z,94561.28
2023-09-17T21:20:37.451Z,94560.44
2023-09-17T21:23:04.448Z,94559.94
2023-09-17T21:25:31.187Z,94550.38
2023-09-17T21:30:24.266Z,94547.03
2023-09-17T21:32:50.865Z,94547.22
2023-09-17T21:35:18.987Z,94557.38
2023-09-17T21:37:45.620Z,94545.13
2023-09-17T21:40:13.018Z,94552.00
2023-09-17T21:42:39.905Z,94553.84
2023-09-17T21:45:07.474Z,94549.16
2023-09-17T21:47:34.176Z,94539.84
2023-09-17T21:50:01.632Z,94550.16
2023-09-17T21:52:30.662Z,94547.47
2023-09-17T21:54:58.056Z,94543.56
2023-09-17T21:57:25.319Z,94539.91
2023-09-17T21:59:52.185Z,94538.75
2023-09-17T22:02:19.882Z,94540.66
2023-09-17T22:04:46.630Z,94543.88
2023-09-17T22:07:13.276Z,94527.63
2023-09-17T22:09:41.456Z,94530.00
2023-09-17T22:12:08.699Z,94526.25
2023-09-17T22:14:35.930Z,94526.53
2023-09-17T22:17:05.748Z,94535.81
2023-09-17T22:19:33.964Z,94510.66
2023-09-17T22:22:00.640Z,94526.69
2023-09-17T22:24:27.230Z,94517.38
2023-09-17T22:26:56.363Z,94512.47
2023-09-17T22:29:22.988Z,94524.03
2023-09-17T22:31:49.687Z,94518.34
2023-09-17T22:34:16.363Z,94526.03
2023-09-17T22:36:42.984Z,94531.69
2023-09-17T22:39:09.583Z,94515.63
2023-09-17T22:41:36.220Z,94510.31
2023-09-17T22:44:20.719Z,94516.75
2023-09-17T22:46:49.889Z,94518.44
2023-09-17T22:49:16.543Z,94509.53
2023-09-17T22:51:43.167Z,94502.41
2023-09-17T22:54:10.201Z,94508.22
2023-09-17T22:56:36.960Z,94510.78
2023-09-17T22:59:05.154Z,94506.91
2023-09-17T23:01:33.809Z,94511.91
2023-09-17T23:04:00.441Z,94503.25
2023-09-17T23:06:27.763Z,94513.31
2023-09-17T23:08:55.459Z,94506.81
2023-09-17T23:11:22.638Z,94512.84
2023-09-17T23:13:49.327Z,94499.06
2023-09-17T23:16:18.074Z,94500.41
2023-09-17T23:18:44.816Z,94503.53
2023-09-17T23:21:16.158Z,94501.47
2023-09-17T23:23:46.149Z,94484.78
2023-09-17T23:26:13.899Z,94484.69
2023-09-17T23:28:40.986Z,94485.91
2023-09-17T23:31:09.674Z,94476.16
2023-09-17T23:33:37.752Z,94474.44
2023-09-17T23:36:05.130Z,94474.19
2023-09-17T23:38:32.467Z,94476.09
2023-09-17T23:40:59.207Z,94474.34
2023-09-17T23:43:26.038Z,94466.91
2023-09-17T23:45:52.915Z,94461.56
2023-09-17T23:48:19.708Z,94468.66
2023-09-17T23:50:51.264Z,94462.09
2023-09-17T23:53:17.978Z,94471.50
2023-09-17T23:55:47.597Z,94471.94
2023-09-17T23:58:14.912Z,94460.22
